Latest Weather Observations for Amberley

IDQ60801

Issued at 8:02 am EST Sunday 2 August 2015 (issued every 30 minutes, with the page automatically refreshed every 10 minutes)

About weather observations | Map of weather stations | Latest weather observations for QLD | Other Formats
Station Details ID: 040004 Name: AMBERLEY AMO Lat: -27.63 Lon: 152.71 Height: 24.2 m
Data from the previous 72 hours. | See also: Recent months at Amberley
Date/Time
EST
Temp
°C
App
Temp
°C
Dew
Point
Rel
Hum
%
Delta-T
°C
Wind Press
QNH
hPa
Press
MSL
hPa
Rain
since 9 am
mm
Dir
 
Spd
km/h
Gust
km/h
Spd
kts
Gust
kts
02/07:30am 6.5 5.5 5.6 94 0.4 CALM 0 0 0 0 1023.6 - 0.0
02/07:00am 3.8 2.3 3.1 95 0.3 CALM 0 0 0 0 1023.3 - 0.0
02/06:30am 3.9 1.7 3.4 97 0.2 SSW 4 9 2 5 1023.0 - 0.0
02/06:14am 4.5 2.4 3.8 95 0.3 WNW 4 11 2 6 1022.6 - 0.0
02/06:00am 4.1 2.7 3.4 95 0.3 CALM 0 0 0 0 1022.6 1022.7 0.0
02/05:55am 4.5 3.1 3.8 95 0.3 CALM 0 0 0 0 1022.6 - 0.0
02/05:30am 4.6 2.9 3.9 95 0.3 NNW 2 9 1 5 1022.3 - 0.0
02/05:28am 4.7 2.6 3.7 93 0.4 NNW 4 9 2 5 1022.3 - 0.0
02/05:11am 3.4 1.9 2.9 97 0.2 CALM 0 - 0 - 1022.2 - 0.0
02/05:07am 3.7 2.3 3.5 99 0.1 CALM 0 - 0 - 1022.1 - 0.0
02/05:00am 3.9 2.4 3.2 95 0.3 CALM 0 - 0 - 1022.1 - 0.0
02/04:30am 5.3 4.1 4.6 95 0.3 CALM 0 0 0 0 1021.9 - 0.0
02/04:15am 4.7 3.4 4.0 95 0.3 CALM 0 0 0 0 1021.9 - 0.0
02/04:00am 4.7 3.4 4.0 95 0.3 CALM 0 0 0 0 1021.9 - 0.0
02/03:44am 5.0 3.7 4.3 95 0.3 CALM 0 0 0 0 1021.8 - 0.0
02/03:30am 5.1 3.9 4.6 97 0.2 CALM 0 - 0 - 1022.0 - 0.0
02/03:22am 5.3 4.1 4.6 95 0.3 CALM 0 0 0 0 1022.1 - 0.0
02/03:03am 5.4 4.2 4.7 95 0.3 CALM 0 0 0 0 1022.2 - 0.0
02/03:00am 5.3 4.1 4.8 97 0.2 CALM 0 0 0 0 1022.2 1022.3 0.0
02/02:41am 5.1 3.9 4.4 95 0.3 CALM 0 - 0 - 1022.4 - 0.0
02/02:30am 5.8 4.7 5.1 95 0.3 CALM 0 0 0 0 1022.4 - 0.0
02/02:00am 6.3 5.3 5.4 94 0.4 CALM 0 0 0 0 1022.3 - 0.0
02/01:30am 6.7 5.7 5.8 94 0.4 CALM 0 0 0 0 1022.6 - 0.0
02/01:24am 6.9 5.9 5.8 93 0.5 CALM 0 0 0 0 1022.7 - 0.0
02/01:03am 6.3 5.3 5.6 95 0.3 CALM 0 0 0 0 1022.6 - 0.0
02/01:00am 6.3 5.3 5.4 94 0.4 CALM 0 0 0 0 1022.7 - 0.0
02/12:30am 7.5 6.7 6.6 94 0.4 CALM 0 0 0 0 1022.9 - 0.0
02/12:00am 7.8 6.2 6.3 90 0.7 NW 4 7 2 4 1023.1 1023.2 0.0
 
Date/Time
EST
Temp
°C
App
Temp
°C
Dew
Point
Rel
Hum
%
Delta-T
°C
Wind Press
QNH
hPa
Press
MSL
hPa
Rain
since 9 am
mm
Dir
 
Spd
km/h
Gust
km/h
Spd
kts
Gust
kts
01/11:30pm 8.4 6.6 7.1 91 0.6 NNW 6 7 3 4 1023.1 - 0.0
01/11:00pm 9.5 7.4 6.5 81 1.4 NNW 7 9 4 5 1023.0 - 0.0
01/10:30pm 9.2 8.4 6.4 83 1.3 CALM 0 0 0 0 1022.9 - 0.0
01/10:00pm 9.0 8.3 6.8 86 1.0 CALM 0 0 0 0 1023.1 - 0.0
01/09:30pm 9.9 9.6 8.7 92 0.6 CALM 0 0 0 0 1022.9 - 0.0
01/09:00pm 10.3 8.9 8.9 91 0.7 W 6 7 3 4 1022.6 1022.7 0.0
01/08:30pm 10.1 9.1 8.7 91 0.7 SE 4 7 2 4 1022.2 - 0.0
01/08:00pm 14.4 14.4 11.2 81 1.7 E 2 6 1 3 1022.1 - 0.0
01/07:30pm 15.7 14.3 12.2 80 1.9 E 11 13 6 7 1021.6 - 0.0
01/07:00pm 16.6 15.5 11.8 73 2.6 E 9 13 5 7 1021.2 - 0.0
01/06:30pm 18.1 16.1 11.5 65 3.6 ENE 13 17 7 9 1020.9 - 0.0
01/06:00pm 18.9 16.4 11.2 61 4.2 ENE 15 17 8 9 1020.8 1020.9 0.0
01/05:30pm 19.4 16.7 10.3 55 4.9 ENE 15 17 8 9 1020.5 - 0.0
01/05:00pm 21.7 21.6 9.3 45 6.6 CALM 0 6 0 3 1020.4 - 0.0
01/04:30pm 23.0 20.7 7.4 36 8.1 NNE 9 13 5 7 1020.3 - 0.0
01/04:00pm 23.4 20.5 6.4 33 8.7 N 11 15 6 8 1020.3 - 0.0
01/03:30pm 24.0 21.1 6.5 32 9.0 NNE 11 17 6 9 1020.2 - 0.0
01/03:00pm 23.4 20.8 7.8 36 8.2 NNE 11 17 6 9 1020.4 1020.5 0.0
01/02:30pm 23.9 21.1 6.9 33 8.8 N 11 17 6 9 1020.5 - 0.0
01/02:00pm 24.1 21.4 5.5 30 9.4 N 9 13 5 7 1020.6 - 0.0
01/01:30pm 23.3 20.6 5.6 31 8.9 NNW 9 17 5 9 1021.0 - 0.0
01/01:00pm 23.2 20.1 5.5 31 8.9 N 11 19 6 10 1021.3 - 0.0
01/12:30pm 22.0 19.4 6.1 35 8.0 NNW 9 15 5 8 1021.9 - 0.0
01/12:00pm 21.4 19.4 7.1 39 7.3 NW 7 15 4 8 1022.4 1022.5 0.0
01/11:30am 20.1 18.1 7.1 43 6.6 WSW 7 13 4 7 1023.1 - 0.0
01/11:00am 18.9 16.7 6.4 44 6.2 W 7 13 4 7 1023.7 - 0.0
01/10:30am 18.1 16.0 6.6 47 5.7 W 7 11 4 6 1023.9 - 0.0
01/10:00am 15.7 13.7 6.2 53 4.6 WNW 6 11 3 6 1024.4 - 0.0
01/09:30am 14.0 11.7 5.7 57 3.9 NW 7 11 4 6 1024.6 - 0.0
01/09:00am 11.4 9.2 6.3 71 2.4 NW 7 11 4 6 1024.8 1024.8 0.0
01/08:30am 9.6 8.4 6.3 80 1.5 SW 2 7 1 4 1024.6 - 0.0
01/08:00am 7.9 5.7 5.4 84 1.1 SSW 6 7 3 4 1024.6 - 0.0
01/07:30am 6.2 3.3 4.6 89 0.7 SSW 9 9 5 5 1024.0 - 0.0
01/07:00am 3.3 1.7 2.3 93 0.4 CALM 0 0 0 0 1023.4 - 0.0
01/06:30am 2.7 1.0 1.9 94 0.3 CALM 0 0 0 0 1023.1 - 0.0
01/06:00am 3.1 1.6 2.8 98 0.1 CALM 0 0 0 0 1022.8 1022.9 0.0
01/05:30am 2.9 1.2 1.9 93 0.4 CALM 0 0 0 0 1022.7 - 0.0
01/05:00am 3.0 1.4 2.2 94 0.3 CALM 0 0 0 0 1022.4 - 0.0
01/04:30am 3.1 1.5 2.6 96 0.2 CALM 0 0 0 0 1022.5 - 0.0
01/04:00am 2.9 1.2 2.1 94 0.3 CALM 0 0 0 0 1022.4 - 0.0
01/03:30am 3.4 0.7 2.9 97 0.2 NW 6 7 3 4 1022.4 - 0.0
01/03:00am 3.5 1.2 2.7 94 0.3 NW 4 9 2 5 1022.4 1022.5 0.0
01/02:30am 3.9 2.4 3.2 95 0.3 CALM 0 0 0 0 1022.7 - 0.0
01/02:00am 4.3 2.9 3.3 93 0.4 CALM 0 0 0 0 1022.9 - 0.0
01/01:30am 4.4 2.9 3.2 92 0.5 CALM 0 0 0 0 1023.0 - 0.0
01/01:00am 5.0 3.6 3.3 89 0.7 CALM 0 0 0 0 1023.1 - 0.0
01/12:30am 4.9 3.5 3.7 92 0.5 CALM 0 0 0 0 1023.0 - 0.0
01/12:00am 5.6 4.4 4.4 92 0.5 CALM 0 0 0 0 1022.8 1022.9 0.0
 
Date/Time
EST
Temp
°C
App
Temp
°C
Dew
Point
Rel
Hum
%
Delta-T
°C
Wind Press
QNH
hPa
Press
MSL
hPa
Rain
since 9 am
mm
Dir
 
Spd
km/h
Gust
km/h
Spd
kts
Gust
kts
31/11:30pm 5.0 3.6 3.8 92 0.5 CALM 0 0 0 0 1022.7 - 0.0
31/11:00pm 6.6 5.4 4.8 88 0.8 CALM 0 0 0 0 1022.6 - 0.0
31/10:30pm 6.9 4.6 4.8 86 0.9 NNW 6 7 3 4 1022.4 - 0.0
31/10:00pm 6.4 4.8 4.5 88 0.8 N 2 7 1 4 1022.4 - 0.0
31/09:30pm 9.0 7.6 5.4 78 1.6 WNW 2 7 1 4 1022.3 - 0.0
31/09:00pm 7.5 6.4 5.0 84 1.1 CALM 0 0 0 0 1022.0 1022.1 0.0
31/08:30pm 9.5 8.5 5.5 76 1.8 CALM 0 0 0 0 1021.6 - 0.0
31/08:00pm 10.8 9.8 5.6 70 2.4 CALM 0 0 0 0 1021.2 - 0.0
31/07:30pm 11.9 10.9 5.6 65 2.9 CALM 0 0 0 0 1021.0 - 0.0
31/07:00pm 12.1 11.0 5.1 62 3.2 CALM 0 0 0 0 1020.5 - 0.0
31/06:30pm 12.3 11.2 5.1 61 3.3 CALM 0 0 0 0 1020.2 - 0.0
31/06:00pm 15.4 14.0 3.6 45 5.4 CALM 0 0 0 0 1020.0 1020.1 0.0
31/05:30pm 18.1 16.7 3.8 38 6.7 CALM 0 0 0 0 1019.8 - 0.0
31/05:00pm 22.2 21.0 4.4 31 8.7 CALM 0 0 0 0 1019.8 - 0.0
31/04:30pm 23.8 20.0 -0.7 19 11.0 S 9 13 5 7 1019.6 - 0.0
31/04:00pm 24.2 21.7 -1.1 18 11.3 W 2 7 1 4 1019.8 - 0.0
31/03:30pm 24.0 19.4 -0.7 19 11.1 W 13 20 7 11 1019.5 - 0.0
31/03:00pm 23.9 20.3 0.7 21 10.7 NNW 9 13 5 7 1019.5 1019.5 0.0
31/02:30pm 24.3 19.8 -0.4 19 11.2 WSW 13 20 7 11 1019.8 - 0.0
31/02:00pm 24.3 19.8 0.0 20 11.1 WNW 13 24 7 13 1020.1 - 0.0
31/01:30pm 24.2 18.9 2.1 23 10.5 WNW 19 28 10 15 1020.4 - 0.0
31/01:00pm 22.8 19.2 4.8 31 8.9 WSW 13 19 7 10 1020.9 - 0.0
31/12:30pm 22.9 18.5 4.9 31 8.9 W 17 30 9 16 1021.5 - 0.0
31/12:00pm 22.1 17.8 5.4 33 8.3 W 17 30 9 16 1022.1 1022.2 0.0
31/11:30am 21.1 17.3 5.8 37 7.6 W 15 22 8 12 1023.0 - 0.0
31/11:00am 20.0 15.0 6.6 41 6.7 W 22 32 12 17 1023.6 - 0.0
31/10:30am 19.2 15.8 9.1 52 5.3 NW 17 24 9 13 1023.9 - 0.0
31/10:00am 17.0 14.6 9.9 63 3.7 NNW 13 19 7 10 1024.1 - 0.0
31/09:30am 13.8 12.9 10.5 80 1.7 N 6 7 3 4 1024.6 - 0.0
31/09:18am 12.2 11.2 10.2 87 1.0 SSE 6 9 3 5 1024.8 - 0.0
31/09:15am 11.5 10.2 10.1 91 0.7 SSE 7 11 4 6 1024.8 - 0.0
31/09:09am 11.2 10.5 10.0 92 0.6 SSW 4 11 2 6 1024.9 - 0.0
31/09:00am 10.7 10.4 10.1 96 0.3 SSW 2 - 1 - - 1024.9 0.0
31/08:59am 10.8 10.5 10.2 96 0.3 SSW 2 7 1 4 1024.9 - 0.0
31/08:39am 8.7 8.3 8.3 97 0.2 CALM 0 - 0 - 1024.9 - 0.0
31/08:30am 8.0 7.5 7.8 99 0.1 CALM 0 4 0 2 1024.8 - 0.0
31/08:22am 7.8 6.8 7.4 97 0.2 SSW 2 7 1 4 1024.6 - 0.0
31/08:00am 6.9 6.1 6.5 97 0.2 CALM 0 4 0 2 1024.8 - 0.0
31/07:30am 5.8 4.7 5.3 97 0.2 CALM 0 - 0 - 1024.5 - 0.0
31/07:00am 5.0 3.8 4.5 97 0.2 CALM 0 - 0 - 1024.1 - 0.0
31/06:30am 4.9 2.6 4.7 99 0.1 SSW 6 9 3 5 1023.8 - 0.0
31/06:18am 4.6 2.2 4.1 97 0.2 SSW 6 9 3 5 1023.7 - 0.0
31/06:00am 4.6 3.3 3.9 95 0.3 CALM 0 0 0 0 1023.2 1023.3 0.0
31/05:56am 4.4 3.1 3.9 97 0.2 CALM 0 0 0 0 1023.2 - 0.0
31/05:30am 4.2 2.4 3.7 97 0.2 SSW 2 7 1 4 1022.8 - 0.0
31/05:10am 5.2 1.5 4.7 97 0.2 SW 13 19 7 10 1023.0 - 0.0
31/05:04am 5.1 2.2 4.4 95 0.3 SSW 9 13 5 7 1022.7 - 0.0
31/05:00am 5.1 2.2 4.6 97 0.2 SSW 9 11 5 6 1022.5 - 0.0
31/04:57am 4.9 2.0 4.7 99 0.1 SSW 9 11 5 6 1022.5 - 0.0
31/04:30am 3.9 1.3 3.4 97 0.2 ESE 6 7 3 4 1022.2 - 0.0
31/04:00am 4.3 1.9 4.1 99 0.1 NNE 6 9 3 5 1022.5 - 0.0
31/03:48am 4.7 3.0 4.0 95 0.3 WSW 2 7 1 4 1022.7 - 0.0
31/03:44am 4.1 2.7 3.4 95 0.3 CALM 0 - 0 - 1023.0 - 0.0
31/03:30am 4.6 3.4 4.4 99 0.1 CALM 0 - 0 - 1023.4 - 0.0
31/03:24am 3.8 2.4 3.3 97 0.2 CALM 0 4 0 2 1023.5 - 0.0
31/03:19am 4.0 1.9 3.8 99 0.1 SW 4 9 2 5 1023.5 - 0.0
31/03:13am 4.8 1.8 4.3 97 0.2 SW 9 11 5 6 1023.6 - 0.0
31/03:00am 5.3 3.7 4.6 95 0.3 W 2 11 1 6 1023.5 1023.6 0.0
31/02:49am 4.8 3.6 4.6 99 0.1 CALM 0 - 0 - 1023.3 - 0.0
31/02:39am 4.9 3.8 4.9 100 0.0 CALM 0 - 0 - 1023.3 - 0.0
31/02:37am 5.2 4.1 5.0 99 0.1 CALM 0 - 0 - 1023.4 - 0.0
31/02:30am 5.4 4.3 4.9 97 0.2 CALM 0 - 0 - 1023.4 - 0.0
31/02:27am 5.4 4.3 4.9 97 0.2 CALM 0 - 0 - 1023.5 - 0.0
31/02:15am 5.1 3.9 4.6 97 0.2 CALM 0 - 0 - 1023.7 - 0.0
31/02:13am 5.0 3.8 4.8 99 0.1 CALM 0 - 0 - 1023.7 - 0.0
31/02:09am 5.5 4.5 5.5 100 0.0 CALM 0 - 0 - 1023.7 - 0.0
31/02:00am 5.5 4.3 4.8 95 0.3 CALM 0 0 0 0 1023.7 - 0.0
31/01:57am 5.5 4.3 4.8 95 0.3 CALM 0 0 0 0 1023.7 - 0.0
31/01:37am 6.1 5.2 5.9 99 0.1 CALM 0 0 0 0 1023.7 - 0.0
31/01:30am 7.3 6.6 6.9 97 0.2 CALM 0 0 0 0 1023.8 - 0.0
31/01:22am 7.3 6.1 6.6 95 0.3 WNW 2 7 1 4 1023.8 - 0.0
31/01:19am 7.2 5.6 6.3 94 0.4 WNW 4 7 2 4 1023.8 - 0.0
31/01:00am 6.7 5.5 6.3 97 0.2 NW 2 7 1 4 1023.7 - 0.0
31/12:58am 6.5 5.2 6.1 97 0.2 NW 2 7 1 4 1023.7 - 0.0
31/12:30am 7.1 6.3 6.7 97 0.2 CALM 0 - 0 - 1023.9 - 0.0
31/12:28am 7.0 6.2 6.6 97 0.2 CALM 0 - 0 - 1023.9 - 0.0
31/12:25am 7.1 6.3 6.7 97 0.2 CALM 0 - 0 - 1024.0 - 0.0
31/12:18am 7.5 6.8 7.1 97 0.2 CALM 0 - 0 - 1024.0 - 0.0
31/12:15am 7.5 6.8 6.8 95 0.3 CALM 0 - 0 - 1024.0 - 0.0
31/12:09am 7.4 6.6 6.5 94 0.4 CALM 0 0 0 0 1024.1 - 0.0
31/12:00am 7.6 6.8 6.5 93 0.5 CALM 0 0 0 0 1024.4 1024.4 0.0
 
Date/Time
EST
Temp
°C
App
Temp
°C
Dew
Point
Rel
Hum
%
Delta-T
°C
Wind Press
QNH
hPa
Press
MSL
hPa
Rain
since 9 am
mm
Dir
 
Spd
km/h
Gust
km/h
Spd
kts
Gust
kts
30/11:49pm 8.1 7.6 7.7 97 0.2 CALM 0 0 0 0 1024.4 - 0.0
30/11:30pm 8.0 6.0 7.1 94 0.4 NNW 7 9 4 5 1024.5 - 0.0
30/11:00pm 8.5 8.0 7.7 95 0.4 CALM 0 0 0 0 1024.7 - 0.0
30/10:30pm 8.6 7.6 7.5 93 0.5 N 2 7 1 4 1024.7 - 0.0
30/10:00pm 8.5 6.9 7.9 96 0.3 NW 6 7 3 4 1024.7 - 0.0
30/09:30pm 8.0 6.2 7.1 94 0.4 SW 6 9 3 5 1024.7 - 0.0
30/09:00pm 10.5 9.1 9.5 93 0.5 E 7 7 4 4 1024.4 1024.4 0.0
30/08:30pm 11.8 11.0 9.6 86 1.1 E 4 7 2 4 1024.4 - 0.0
30/08:00pm 13.8 12.5 10.1 78 1.9 ENE 7 7 4 4 1024.5 - 0.0
30/07:30pm 14.7 14.8 10.3 75 2.3 CALM 0 0 0 0 1024.5 - 0.0
30/07:00pm 15.8 14.2 10.3 70 2.9 ENE 9 11 5 6 1024.0 - 0.0
30/06:30pm 16.3 14.6 10.0 66 3.3 ENE 9 11 5 6 1023.9 - 0.0
30/06:00pm 14.8 14.1 10.0 73 2.5 NE 4 9 2 5 1024.0 1024.1 0.0
30/05:30pm 16.8 16.8 9.7 63 3.7 CALM 0 0 0 0 1024.0 - 0.0
30/05:00pm 19.3 18.9 9.7 53 5.1 NNE 2 6 1 3 1023.8 - 0.0
30/04:30pm 20.6 19.0 8.8 46 6.2 NNE 7 11 4 6 1023.5 - 0.0
30/04:00pm 21.3 18.4 8.3 43 6.8 NE 13 15 7 8 1023.2 - 0.0
30/03:30pm 22.0 20.4 8.0 40 7.3 SSE 6 11 3 6 1023.3 - 0.0
30/03:00pm 22.1 20.0 8.1 40 7.3 E 9 15 5 8 1023.6 1023.7 0.0
30/02:30pm 21.6 19.5 8.4 42 6.9 E 9 13 5 7 1024.1 - 0.0
30/02:00pm 21.6 19.9 8.2 42 7.0 ENE 7 9 4 5 1024.7 - 0.0
30/01:30pm 21.0 18.6 8.6 45 6.5 NE 11 17 6 9 1024.9 - 0.0
30/01:00pm 20.8 18.3 8.3 44 6.5 NNE 11 19 6 10 1025.3 - 0.0
30/12:30pm 20.3 18.3 8.6 47 6.1 N 9 17 5 9 1025.8 - 0.0
30/12:00pm 20.5 19.0 8.6 46 6.2 NW 6 9 3 5 1026.3 1026.3 0.0
30/11:30am 19.6 18.6 8.9 50 5.6 W 4 11 2 6 1027.1 - 0.0
30/11:00am 18.3 16.3 8.8 54 4.9 W 9 13 5 7 1027.8 - 0.0
30/10:30am 17.4 15.7 7.6 52 4.9 W 6 9 3 5 1028.2 - 0.0
30/10:00am 16.2 14.1 6.5 52 4.7 WNW 7 13 4 7 1028.5 - 0.0
30/09:30am 15.2 12.9 5.5 52 4.6 NNW 7 11 4 6 1028.8 - 0.0
30/09:00am 13.2 10.7 4.9 57 3.8 WNW 7 11 4 6 1028.9 1028.9 0.0
30/08:30am 11.4 8.6 5.0 65 2.9 NNW 9 13 5 7 1028.9 - 0.0

Other Formats:

Comma delimited format used in spreadsheet applications
http://www.bom.gov.au/fwo/IDQ60801/IDQ60801.94568.axf

JavaScript Object Notation format (JSON) in row-major order
http://www.bom.gov.au/fwo/IDQ60801/IDQ60801.94568.json